sensor_id;sensor_type;location;lat;lon;timestamp;pressure;altitude;pressure_sealevel;temperature;humidity
28306;BME280;7516;43.570;1.448;2023-04-10T00:01:45;99974.28;;;13.12;49.35
28306;BME280;7516;43.570;1.448;2023-04-10T00:04:12;99977.84;;;13.04;50.71
28306;BME280;7516;43.570;1.448;2023-04-10T00:06:42;99981.28;;;13.05;49.93
28306;BME280;7516;43.570;1.448;2023-04-10T00:09:09;99975.75;;;13.00;49.89
28306;BME280;7516;43.570;1.448;2023-04-10T00:11:37;99978.09;;;12.95;50.52
28306;BME280;7516;43.570;1.448;2023-04-10T00:14:04;99981.38;;;12.97;50.41
28306;BME280;7516;43.570;1.448;2023-04-10T00:16:32;99984.09;;;12.89;51.51
28306;BME280;7516;43.570;1.448;2023-04-10T00:18:59;99975.94;;;12.84;50.76
28306;BME280;7516;43.570;1.448;2023-04-10T00:21:26;99981.19;;;12.84;51.67
28306;BME280;7516;43.570;1.448;2023-04-10T00:23:55;99973.75;;;12.72;51.17
28306;BME280;7516;43.570;1.448;2023-04-10T00:26:23;99974.72;;;12.71;52.03
28306;BME280;7516;43.570;1.448;2023-04-10T00:28:51;99965.56;;;12.67;52.26
28306;BME280;7516;43.570;1.448;2023-04-10T00:31:19;99974.09;;;12.69;51.93
28306;BME280;7516;43.570;1.448;2023-04-10T00:33:46;99974.09;;;12.69;52.49
28306;BME280;7516;43.570;1.448;2023-04-10T00:36:14;99982.16;;;12.68;53.03
28306;BME280;7516;43.570;1.448;2023-04-10T00:38:42;99980.41;;;12.60;53.08
28306;BME280;7516;43.570;1.448;2023-04-10T00:41:11;99965.03;;;12.57;52.65
28306;BME280;7516;43.570;1.448;2023-04-10T00:43:38;99971.84;;;12.66;51.75
28306;BME280;7516;43.570;1.448;2023-04-10T00:46:06;99975.72;;;12.70;51.48
28306;BME280;7516;43.570;1.448;2023-04-10T00:48:34;99983.88;;;12.75;51.71
28306;BME280;7516;43.570;1.448;2023-04-10T00:51:01;99975.47;;;12.80;51.91
28306;BME280;7516;43.570;1.448;2023-04-10T00:53:30;99970.56;;;12.77;52.31
28306;BME280;7516;43.570;1.448;2023-04-10T00:55:57;99982.53;;;12.79;52.75
28306;BME280;7516;43.570;1.448;2023-04-10T00:58:26;99977.91;;;12.81;52.79
28306;BME280;7516;43.570;1.448;2023-04-10T01:00:54;99980.56;;;12.81;52.29
28306;BME280;7516;43.570;1.448;2023-04-10T01:03:22;99974.28;;;12.82;52.04
28306;BME280;7516;43.570;1.448;2023-04-10T01:05:58;99961.50;;;12.79;53.47
28306;BME280;7516;43.570;1.448;2023-04-10T01:08:37;99973.00;;;12.78;52.64
28306;BME280;7516;43.570;1.448;2023-04-10T01:11:12;99964.59;;;12.83;53.38
28306;BME280;7516;43.570;1.448;2023-04-10T01:13:46;99971.03;;;12.80;53.57
28306;BME280;7516;43.570;1.448;2023-04-10T01:16:21;99979.34;;;12.84;53.24
28306;BME280;7516;43.570;1.448;2023-04-10T01:18:54;99977.53;;;12.85;52.55
28306;BME280;7516;43.570;1.448;2023-04-10T01:21:23;99976.28;;;12.80;53.29
28306;BME280;7516;43.570;1.448;2023-04-10T01:24:02;99973.00;;;12.78;52.83
28306;BME280;7516;43.570;1.448;2023-04-10T01:26:41;99970.56;;;12.77;53.44
28306;BME280;7516;43.570;1.448;2023-04-10T01:29:18;99964.47;;;12.76;53.48
28306;BME280;7516;43.570;1.448;2023-04-10T01:31:52;99965.28;;;12.77;53.16
28306;BME280;7516;43.570;1.448;2023-04-10T01:34:24;99961.22;;;12.74;52.30
28306;BME280;7516;43.570;1.448;2023-04-10T01:36:55;99961.22;;;12.74;52.92
28306;BME280;7516;43.570;1.448;2023-04-10T01:39:26;99968.09;;;12.75;53.07
28306;BME280;7516;43.570;1.448;2023-04-10T01:41:55;99964.69;;;12.75;53.53
28306;BME280;7516;43.570;1.448;2023-04-10T01:44:28;99967.31;;;12.75;52.82
28306;BME280;7516;43.570;1.448;2023-04-10T01:46:56;99966.13;;;12.77;52.48
28306;BME280;7516;43.570;1.448;2023-04-10T01:49:26;99976.63;;;12.77;52.80
28306;BME280;7516;43.570;1.448;2023-04-10T01:51:55;99970.72;;;12.75;54.22
28306;BME280;7516;43.570;1.448;2023-04-10T01:54:25;99977.81;;;12.75;53.61
28306;BME280;7516;43.570;1.448;2023-04-10T01:56:53;99981.63;;;12.72;53.87
28306;BME280;7516;43.570;1.448;2023-04-10T01:59:21;99977.09;;;12.66;54.66
28306;BME280;7516;43.570;1.448;2023-04-10T02:01:55;99980.06;;;12.63;54.26
28306;BME280;7516;43.570;1.448;2023-04-10T02:04:23;99973.16;;;12.62;55.59
28306;BME280;7516;43.570;1.448;2023-04-10T02:07:01;99970.28;;;12.57;55.85
28306;BME280;7516;43.570;1.448;2023-04-10T02:09:39;99977.50;;;12.55;55.04
28306;BME280;7516;43.570;1.448;2023-04-10T02:12:12;99978.84;;;12.51;55.21
28306;BME280;7516;43.570;1.448;2023-04-10T02:14:44;99972.78;;;12.51;56.08
28306;BME280;7516;43.570;1.448;2023-04-10T02:17:17;99977.75;;;12.46;55.72
28306;BME280;7516;43.570;1.448;2023-04-10T02:19:47;99973.84;;;12.41;56.01
28306;BME280;7516;43.570;1.448;2023-04-10T02:22:15;99973.03;;;12.41;56.54
28306;BME280;7516;43.570;1.448;2023-04-10T02:24:43;99978.00;;;12.36;56.87
28306;BME280;7516;43.570;1.448;2023-04-10T02:27:11;99970.13;;;12.36;56.40
28306;BME280;7516;43.570;1.448;2023-04-10T02:29:38;99970.28;;;12.34;56.71
28306;BME280;7516;43.570;1.448;2023-04-10T02:32:06;99967.22;;;12.31;57.88
28306;BME280;7516;43.570;1.448;2023-04-10T02:34:35;99965.59;;;12.30;58.30
28306;BME280;7516;43.570;1.448;2023-04-10T02:37:02;99967.38;;;12.29;58.61
28306;BME280;7516;43.570;1.448;2023-04-10T02:39:30;99964.59;;;12.31;58.04
28306;BME280;7516;43.570;1.448;2023-04-10T02:41:57;99970.19;;;12.28;58.62
28306;BME280;7516;43.570;1.448;2023-04-10T02:44:25;99969.53;;;12.26;59.02
28306;BME280;7516;43.570;1.448;2023-04-10T02:46:52;99963.94;;;12.29;58.81
28306;BME280;7516;43.570;1.448;2023-04-10T02:49:19;99972.81;;;12.28;59.23
28306;BME280;7516;43.570;1.448;2023-04-10T02:51:48;99958.84;;;12.27;60.02
28306;BME280;7516;43.570;1.448;2023-04-10T02:54:16;99963.13;;;12.28;60.32
28306;BME280;7516;43.570;1.448;2023-04-10T02:56:43;99950.81;;;12.29;59.95
28306;BME280;7516;43.570;1.448;2023-04-10T02:59:12;99954.25;;;12.29;60.31
28306;BME280;7516;43.570;1.448;2023-04-10T03:01:39;99951.91;;;12.34;60.59
28306;BME280;7516;43.570;1.448;2023-04-10T03:04:07;99952.06;;;12.33;60.42
28306;BME280;7516;43.570;1.448;2023-04-10T03:06:34;99952.72;;;12.35;60.53
28306;BME280;7516;43.570;1.448;2023-04-10T03:09:03;99951.72;;;12.36;60.68
28306;BME280;7516;43.570;1.448;2023-04-10T03:11:31;99963.88;;;12.37;61.25
28306;BME280;7516;43.570;1.448;2023-04-10T03:13:59;99960.69;;;12.41;60.84
28306;BME280;7516;43.570;1.448;2023-04-10T03:16:26;99969.56;;;12.40;60.88
28306;BME280;7516;43.570;1.448;2023-04-10T03:18:55;99967.16;;;12.39;60.49
28306;BME280;7516;43.570;1.448;2023-04-10T03:21:22;99966.94;;;12.40;61.58
28306;BME280;7516;43.570;1.448;2023-04-10T03:23:50;99969.13;;;12.37;60.57
28306;BME280;7516;43.570;1.448;2023-04-10T03:26:19;99967.97;;;12.39;61.70
28306;BME280;7516;43.570;1.448;2023-04-10T03:28:46;99971.41;;;12.40;61.62
28306;BME280;7516;43.570;1.448;2023-04-10T03:31:13;99971.59;;;12.38;61.67
28306;BME280;7516;43.570;1.448;2023-04-10T03:33:41;99974.03;;;12.40;61.37
28306;BME280;7516;43.570;1.448;2023-04-10T03:36:09;99974.84;;;12.40;60.86
28306;BME280;7516;43.570;1.448;2023-04-10T03:38:37;99971.41;;;12.40;61.14
28306;BME280;7516;43.570;1.448;2023-04-10T03:41:05;99976.47;;;12.41;61.70
28306;BME280;7516;43.570;1.448;2023-04-10T03:43:34;99963.53;;;12.40;61.40
28306;BME280;7516;43.570;1.448;2023-04-10T03:46:01;99967.31;;;12.37;61.40
28306;BME280;7516;43.570;1.448;2023-04-10T03:48:29;99969.94;;;12.37;61.70
28306;BME280;7516;43.570;1.448;2023-04-10T03:50:57;99967.50;;;12.36;60.99
28306;BME280;7516;43.570;1.448;2023-04-10T03:53:25;99965.84;;;12.35;61.30
28306;BME280;7516;43.570;1.448;2023-04-10T03:55:52;99975.38;;;12.36;62.20
28306;BME280;7516;43.570;1.448;2023-04-10T03:58:19;99972.09;;;12.34;62.44
28306;BME280;7516;43.570;1.448;2023-04-10T04:00:48;99970.75;;;12.38;63.07
28306;BME280;7516;43.570;1.448;2023-04-10T04:03:16;99981.28;;;12.38;62.53
28306;BME280;7516;43.570;1.448;2023-04-10T04:05:44;99979.81;;;12.35;63.18
28306;BME280;7516;43.570;1.448;2023-04-10T04:08:11;99982.09;;;12.38;63.52
28306;BME280;7516;43.570;1.448;2023-04-10T04:10:39;99978.00;;;12.36;63.69
28306;BME280;7516;43.570;1.448;2023-04-10T04:13:06;99977.34;;;12.34;64.18
28306;BME280;7516;43.570;1.448;2023-04-10T04:15:33;99991.47;;;12.33;63.37
28306;BME280;7516;43.570;1.448;2023-04-10T04:18:02;99987.69;;;12.35;64.67
28306;BME280;7516;43.570;1.448;2023-04-10T04:20:30;99994.25;;;12.39;64.49
28306;BME280;7516;43.570;1.448;2023-04-10T04:22:57;99996.66;;;12.41;64.50
28306;BME280;7516;43.570;1.448;2023-04-10T04:25:25;99991.63;;;12.39;65.15
28306;BME280;7516;43.570;1.448;2023-04-10T04:27:52;99986.16;;;12.41;65.15
28306;BME280;7516;43.570;1.448;2023-04-10T04:30:20;99982.28;;;12.37;65.66
28306;BME280;7516;43.570;1.448;2023-04-10T04:32:47;99981.94;;;12.40;65.04
28306;BME280;7516;43.570;1.448;2023-04-10T04:35:16;99978.66;;;12.38;64.66
28306;BME280;7516;43.570;1.448;2023-04-10T04:37:44;99972.75;;;12.36;65.19
28306;BME280;7516;43.570;1.448;2023-04-10T04:40:12;99984.25;;;12.35;66.47
28306;BME280;7516;43.570;1.448;2023-04-10T04:42:39;99983.25;;;12.36;66.50
28306;BME280;7516;43.570;1.448;2023-04-10T04:45:08;99992.13;;;12.35;66.98
28306;BME280;7516;43.570;1.448;2023-04-10T04:47:35;99988.69;;;12.34;66.46
28306;BME280;7516;43.570;1.448;2023-04-10T04:50:03;100004.63;;;12.33;66.81
28306;BME280;7516;43.570;1.448;2023-04-10T04:52:32;99998.22;;;12.35;66.56
28306;BME280;7516;43.570;1.448;2023-04-10T04:55:00;99998.38;;;12.34;66.65
28306;BME280;7516;43.570;1.448;2023-04-10T04:57:27;100006.25;;;12.34;66.55
28306;BME280;7516;43.570;1.448;2023-04-10T04:59:55;100007.25;;;12.33;66.49
28306;BME280;7516;43.570;1.448;2023-04-10T05:02:22;100013.50;;;12.32;65.82
28306;BME280;7516;43.570;1.448;2023-04-10T05:04:50;100011.25;;;12.29;65.97
28306;BME280;7516;43.570;1.448;2023-04-10T05:07:18;100012.88;;;12.30;66.22
28306;BME280;7516;43.570;1.448;2023-04-10T05:09:46;100016.66;;;12.27;66.09
28306;BME280;7516;43.570;1.448;2023-04-10T05:12:14;100022.44;;;12.23;66.86
28306;BME280;7516;43.570;1.448;2023-04-10T05:14:41;100017.81;;;12.25;66.87
28306;BME280;7516;43.570;1.448;2023-04-10T05:17:09;100017.00;;;12.24;66.75
28306;BME280;7516;43.570;1.448;2023-04-10T05:19:36;100016.84;;;12.26;67.42
28306;BME280;7516;43.570;1.448;2023-04-10T05:22:04;100017.19;;;12.23;67.31
28306;BME280;7516;43.570;1.448;2023-04-10T05:24:31;100016.00;;;12.25;67.15
28306;BME280;7516;43.570;1.448;2023-04-10T05:27:00;100025.53;;;12.26;67.83
28306;BME280;7516;43.570;1.448;2023-04-10T05:29:28;100029.47;;;12.30;67.99
28306;BME280;7516;43.570;1.448;2023-04-10T05:31:55;100034.53;;;12.32;68.74
28306;BME280;7516;43.570;1.448;2023-04-10T05:34:23;100036.47;;;12.38;70.08
28306;BME280;7516;43.570;1.448;2023-04-10T05:36:50;100029.56;;;12.37;69.77
28306;BME280;7516;43.570;1.448;2023-04-10T05:39:17;100029.41;;;12.38;70.09
28306;BME280;7516;43.570;1.448;2023-04-10T05:41:45;100029.41;;;12.38;69.75
28306;BME280;7516;43.570;1.448;2023-04-10T05:44:14;100037.75;;;12.42;71.32
28306;BME280;7516;43.570;1.448;2023-04-10T05:46:41;100034.13;;;12.43;70.80
28306;BME280;7516;43.570;1.448;2023-04-10T05:49:09;100035.09;;;12.42;71.26
28306;BME280;7516;43.570;1.448;2023-04-10T05:51:36;100045.44;;;12.43;71.70
28306;BME280;7516;43.570;1.448;2023-04-10T05:54:04;100034.59;;;12.47;71.69
28306;BME280;7516;43.570;1.448;2023-04-10T05:56:31;100037.69;;;12.50;73.53
28306;BME280;7516;43.570;1.448;2023-04-10T05:58:59;100034.06;;;12.51;74.61
28306;BME280;7516;43.570;1.448;2023-04-10T06:01:27;100028.63;;;12.53;74.12
28306;BME280;7516;43.570;1.448;2023-04-10T06:03:55;100040.22;;;12.58;74.27
28306;BME280;7516;43.570;1.448;2023-04-10T06:06:23;100042.25;;;12.56;75.28
28306;BME280;7516;43.570;1.448;2023-04-10T06:08:51;100047.31;;;12.58;75.59
28306;BME280;7516;43.570;1.448;2023-04-10T06:11:19;100066.19;;;12.61;76.16
28306;BME280;7516;43.570;1.448;2023-04-10T06:13:46;100064.84;;;12.65;75.76
28306;BME280;7516;43.570;1.448;2023-04-10T06:16:14;100066.66;;;12.65;76.23
28306;BME280;7516;43.570;1.448;2023-04-10T06:18:43;100068.09;;;12.67;75.65
28306;BME280;7516;43.570;1.448;2023-04-10T06:21:11;100063.50;;;12.69;75.73
28306;BME280;7516;43.570;1.448;2023-04-10T06:23:39;100066.75;;;12.71;75.88
28306;BME280;7516;43.570;1.448;2023-04-10T06:26:07;100076.94;;;12.74;77.19
28306;BME280;7516;43.570;1.448;2023-04-10T06:28:34;100078.84;;;12.80;77.17
28306;BME280;7516;43.570;1.448;2023-04-10T06:31:02;100075.69;;;12.85;76.04
28306;BME280;7516;43.570;1.448;2023-04-10T06:33:29;100087.66;;;12.88;76.93
28306;BME280;7516;43.570;1.448;2023-04-10T06:35:58;100080.69;;;12.95;77.84
28306;BME280;7516;43.570;1.448;2023-04-10T06:38:26;100088.59;;;12.95;76.29
28306;BME280;7516;43.570;1.448;2023-04-10T06:40:53;100094.97;;;13.00;76.08
28306;BME280;7516;43.570;1.448;2023-04-10T06:43:21;100096.22;;;13.04;75.81
28306;BME280;7516;43.570;1.448;2023-04-10T06:45:48;100096.53;;;13.09;75.59
28306;BME280;7516;43.570;1.448;2023-04-10T06:48:16;100094.19;;;13.14;74.23
28306;BME280;7516;43.570;1.448;2023-04-10T06:50:43;100100.75;;;13.18;74.36
28306;BME280;7516;43.570;1.448;2023-04-10T06:53:12;100112.53;;;13.23;73.83
28306;BME280;7516;43.570;1.448;2023-04-10T06:55:39;100107.91;;;13.25;73.00
28306;BME280;7516;43.570;1.448;2023-04-10T06:58:07;100114.28;;;13.30;74.05
28306;BME280;7516;43.570;1.448;2023-04-10T07:00:34;100115.75;;;13.33;73.45
28306;BME280;7516;43.570;1.448;2023-04-10T07:03:02;100121.91;;;13.40;74.42
28306;BME280;7516;43.570;1.448;2023-04-10T07:05:29;100117.47;;;13.40;73.29
28306;BME280;7516;43.570;1.448;2023-04-10T07:07:57;100114.09;;;13.46;75.53
28306;BME280;7516;43.570;1.448;2023-04-10T07:10:26;100103.03;;;13.51;74.96
28306;BME280;7516;43.570;1.448;2023-04-10T07:12:53;100105.75;;;13.57;74.89
28306;BME280;7516;43.570;1.448;2023-04-10T07:15:22;100115.94;;;13.61;76.01
28306;BME280;7516;43.570;1.448;2023-04-10T07:17:49;100110.75;;;13.67;77.95
28306;BME280;7516;43.570;1.448;2023-04-10T07:20:17;100116.94;;;13.74;77.83
28306;BME280;7516;43.570;1.448;2023-04-10T07:22:44;100114.59;;;13.79;77.86
28306;BME280;7516;43.570;1.448;2023-04-10T07:25:12;100138.38;;;13.86;77.39
28306;BME280;7516;43.570;1.448;2023-04-10T07:27:42;100138.63;;;13.91;77.56
28306;BME280;7516;43.570;1.448;2023-04-10T07:30:10;100142.53;;;13.95;79.16
28306;BME280;7516;43.570;1.448;2023-04-10T07:32:37;100147.06;;;14.01;77.84
28306;BME280;7516;43.570;1.448;2023-04-10T07:35:07;100158.63;;;14.00;79.87
28306;BME280;7516;43.570;1.448;2023-04-10T07:37:35;100164.69;;;14.01;80.97
28306;BME280;7516;43.570;1.448;2023-04-10T07:40:06;100156.69;;;14.09;79.32
28306;BME280;7516;43.570;1.448;2023-04-10T07:42:33;100156.78;;;14.15;80.62
28306;BME280;7516;43.570;1.448;2023-04-10T07:45:02;100163.31;;;14.19;80.55
28306;BME280;7516;43.570;1.448;2023-04-10T07:47:30;100158.75;;;14.28;82.00
28306;BME280;7516;43.570;1.448;2023-04-10T07:49:57;100157.84;;;14.36;82.23
28306;BME280;7516;43.570;1.448;2023-04-10T07:52:25;100158.41;;;14.31;82.49
28306;BME280;7516;43.570;1.448;2023-04-10T07:54:52;100161.38;;;14.43;82.02
28306;BME280;7516;43.570;1.448;2023-04-10T07:57:20;100171.75;;;14.44;82.74
28306;BME280;7516;43.570;1.448;2023-04-10T07:59:47;100171.56;;;14.46;82.38
28306;BME280;7516;43.570;1.448;2023-04-10T08:02:16;100176.84;;;14.46;82.57
28306;BME280;7516;43.570;1.448;2023-04-10T08:04:43;100181.19;;;14.53;83.29
28306;BME280;7516;43.570;1.448;2023-04-10T08:07:14;100184.94;;;14.59;81.76
28306;BME280;7516;43.570;1.448;2023-04-10T08:09:41;100186.56;;;14.60;81.50
28306;BME280;7516;43.570;1.448;2023-04-10T08:12:09;100192.63;;;14.60;82.49
28306;BME280;7516;43.570;1.448;2023-04-10T08:14:36;100202.06;;;14.69;81.93
28306;BME280;7516;43.570;1.448;2023-04-10T08:17:04;100197.00;;;14.68;82.73
28306;BME280;7516;43.570;1.448;2023-04-10T08:19:32;100203.97;;;14.76;82.24
28306;BME280;7516;43.570;1.448;2023-04-10T08:22:00;100215.72;;;14.73;82.12
28306;BME280;7516;43.570;1.448;2023-04-10T08:24:27;100217.59;;;14.79;80.98
28306;BME280;7516;43.570;1.448;2023-04-10T08:26:55;100214.53;;;14.97;81.63
28306;BME280;7516;43.570;1.448;2023-04-10T08:29:22;100228.81;;;15.02;80.69
28306;BME280;7516;43.570;1.448;2023-04-10T08:31:50;100225.50;;;14.94;81.17
28306;BME280;7516;43.570;1.448;2023-04-10T08:34:17;100230.81;;;15.00;80.22
28306;BME280;7516;43.570;1.448;2023-04-10T08:36:46;100229.69;;;15.10;79.63
28306;BME280;7516;43.570;1.448;2023-04-10T08:39:17;100245.22;;;15.19;79.66
28306;BME280;7516;43.570;1.448;2023-04-10T08:41:44;100243.13;;;15.15;78.83
28306;BME280;7516;43.570;1.448;2023-04-10T08:44:12;100234.91;;;15.24;78.03
28306;BME280;7516;43.570;1.448;2023-04-10T08:46:42;100238.03;;;15.34;78.63
28306;BME280;7516;43.570;1.448;2023-04-10T08:49:14;100232.25;;;15.46;79.07
28306;BME280;7516;43.570;1.448;2023-04-10T08:51:48;100229.66;;;15.52;78.35
28306;BME280;7516;43.570;1.448;2023-04-10T08:54:20;100234.13;;;15.52;77.29
28306;BME280;7516;43.570;1.448;2023-04-10T08:56:50;100234.59;;;15.55;78.55
28306;BME280;7516;43.570;1.448;2023-04-10T08:59:20;100232.31;;;15.73;77.74
28306;BME280;7516;43.570;1.448;2023-04-10T09:01:47;100227.03;;;15.73;77.69
28306;BME280;7516;43.570;1.448;2023-04-10T09:04:15;100238.50;;;15.87;76.77
28306;BME280;7516;43.570;1.448;2023-04-10T09:06:43;100227.88;;;15.80;76.33
28306;BME280;7516;43.570;1.448;2023-04-10T09:09:11;100214.03;;;15.78;77.01
28306;BME280;7516;43.570;1.448;2023-04-10T09:11:58;100224.22;;;15.82;76.07
28306;BME280;7516;43.570;1.448;2023-04-10T09:14:29;100216.47;;;16.08;76.92
28306;BME280;7516;43.570;1.448;2023-04-10T09:17:15;100216.34;;;16.29;76.14
28306;BME280;7516;43.570;1.448;2023-04-10T09:19:43;100216.41;;;16.42;74.42
28306;BME280;7516;43.570;1.448;2023-04-10T09:22:12;100228.66;;;16.50;74.47
28306;BME280;7516;43.570;1.448;2023-04-10T09:24:42;100224.38;;;16.49;73.09
28306;BME280;7516;43.570;1.448;2023-04-10T09:27:10;100213.72;;;16.70;72.39
28306;BME280;7516;43.570;1.448;2023-04-10T09:29:53;100224.50;;;16.82;71.47
28306;BME280;7516;43.570;1.448;2023-04-10T09:32:37;100234.91;;;16.90;71.46
28306;BME280;7516;43.570;1.448;2023-04-10T09:35:05;100241.25;;;16.96;71.98
28306;BME280;7516;43.570;1.448;2023-04-10T09:37:34;100239.88;;;17.13;71.13
28306;BME280;7516;43.570;1.448;2023-04-10T09:40:04;100262.06;;;17.05;69.34
28306;BME280;7516;43.570;1.448;2023-04-10T09:42:34;100258.56;;;16.91;69.64
28306;BME280;7516;43.570;1.448;2023-04-10T09:45:03;100251.22;;;16.93;69.46
28306;BME280;7516;43.570;1.448;2023-04-10T09:47:31;100248.81;;;17.05;69.80
28306;BME280;7516;43.570;1.448;2023-04-10T09:50:00;100240.06;;;17.11;69.75
28306;BME280;7516;43.570;1.448;2023-04-10T09:52:28;100259.38;;;16.99;69.11
28306;BME280;7516;43.570;1.448;2023-04-10T09:54:57;100248.78;;;16.99;69.65
28306;BME280;7516;43.570;1.448;2023-04-10T09:57:27;100248.22;;;17.16;68.99
28306;BME280;7516;43.570;1.448;2023-04-10T09:59:56;100250.47;;;17.19;69.16
28306;BME280;7516;43.570;1.448;2023-04-10T10:02:27;100237.44;;;17.31;69.51
28306;BME280;7516;43.570;1.448;2023-04-10T10:04:55;100246.41;;;17.37;69.00
28306;BME280;7516;43.570;1.448;2023-04-10T10:07:25;100238.66;;;17.42;68.68
28306;BME280;7516;43.570;1.448;2023-04-10T10:09:53;100238.66;;;17.22;67.83
28306;BME280;7516;43.570;1.448;2023-04-10T10:12:25;100233.13;;;16.97;68.83
28306;BME280;7516;43.570;1.448;2023-04-10T10:14:59;100233.72;;;16.92;69.80
28306;BME280;7516;43.570;1.448;2023-04-10T10:17:31;100237.41;;;17.05;69.59
28306;BME280;7516;43.570;1.448;2023-04-10T10:20:03;100234.16;;;17.03;69.50
28306;BME280;7516;43.570;1.448;2023-04-10T10:22:32;100240.66;;;17.07;68.92
28306;BME280;7516;43.570;1.448;2023-04-10T10:25:00;100229.28;;;17.19;69.54
28306;BME280;7516;43.570;1.448;2023-04-10T10:27:30;100235.38;;;17.33;67.85
28306;BME280;7516;43.570;1.448;2023-04-10T10:30:00;100235.19;;;17.35;67.32
28306;BME280;7516;43.570;1.448;2023-04-10T10:32:29;100224.00;;;17.33;67.09
28306;BME280;7516;43.570;1.448;2023-04-10T10:34:58;100230.50;;;17.43;67.61
28306;BME280;7516;43.570;1.448;2023-04-10T10:37:28;100240.13;;;17.64;68.15
28306;BME280;7516;43.570;1.448;2023-04-10T10:39:59;100238.47;;;17.83;66.56
28306;BME280;7516;43.570;1.448;2023-04-10T10:42:33;100244.38;;;17.91;65.23
28306;BME280;7516;43.570;1.448;2023-04-10T10:45:10;100251.91;;;17.94;65.47
28306;BME280;7516;43.570;1.448;2023-04-10T10:47:43;100242.97;;;17.82;64.71
28306;BME280;7516;43.570;1.448;2023-04-10T10:50:12;100260.91;;;17.80;65.55
28306;BME280;7516;43.570;1.448;2023-04-10T10:52:41;100261.53;;;17.82;62.39
28306;BME280;7516;43.570;1.448;2023-04-10T10:55:27;100261.72;;;17.87;64.62
28306;BME280;7516;43.570;1.448;2023-04-10T10:57:58;100246.59;;;17.94;63.92
28306;BME280;7516;43.570;1.448;2023-04-10T11:03:33;100230.44;;;18.16;64.42
28306;BME280;7516;43.570;1.448;2023-04-10T11:06:04;100229.44;;;18.17;62.83
28306;BME280;7516;43.570;1.448;2023-04-10T11:08:36;100229.44;;;18.03;62.02
28306;BME280;7516;43.570;1.448;2023-04-10T11:11:06;100211.69;;;18.04;63.46
28306;BME280;7516;43.570;1.448;2023-04-10T11:13:35;100209.88;;;18.11;64.30
28306;BME280;7516;43.570;1.448;2023-04-10T11:16:05;100200.88;;;18.19;63.94
28306;BME280;7516;43.570;1.448;2023-04-10T11:19:03;100198.28;;;17.92;63.34
28306;BME280;7516;43.570;1.448;2023-04-10T11:21:32;100205.00;;;17.88;62.85
28306;BME280;7516;43.570;1.448;2023-04-10T11:24:04;100216.84;;;17.79;63.38
28306;BME280;7516;43.570;1.448;2023-04-10T11:26:39;100213.81;;;17.56;63.56
28306;BME280;7516;43.570;1.448;2023-04-10T11:29:33;100215.03;;;17.53;64.28
28306;BME280;7516;43.570;1.448;2023-04-10T11:32:03;100204.44;;;17.47;65.00
28306;BME280;7516;43.570;1.448;2023-04-10T11:34:31;100197.91;;;17.62;65.23
28306;BME280;7516;43.570;1.448;2023-04-10T11:36:59;100196.88;;;17.70;64.57
28306;BME280;7516;43.570;1.448;2023-04-10T11:39:29;100198.72;;;17.63;63.87
28306;BME280;7516;43.570;1.448;2023-04-10T11:41:57;100204.03;;;17.63;65.17
28306;BME280;7516;43.570;1.448;2023-04-10T11:44:29;100197.91;;;17.69;64.43
28306;BME280;7516;43.570;1.448;2023-04-10T11:46:58;100192.38;;;17.77;64.90
28306;BME280;7516;43.570;1.448;2023-04-10T11:49:28;100194.00;;;17.91;64.67
28306;BME280;7516;43.570;1.448;2023-04-10T11:51:56;100184.81;;;17.87;64.90
28306;BME280;7516;43.570;1.448;2023-04-10T11:54:25;100179.50;;;17.94;63.69
28306;BME280;7516;43.570;1.448;2023-04-10T11:57:00;100182.72;;;18.09;64.53
28306;BME280;7516;43.570;1.448;2023-04-10T11:59:29;100177.59;;;18.14;60.72
28306;BME280;7516;43.570;1.448;2023-04-10T12:02:05;100184.66;;;18.33;61.91
28306;BME280;7516;43.570;1.448;2023-04-10T12:04:35;100183.97;;;18.51;59.54
28306;BME280;7516;43.570;1.448;2023-04-10T12:07:03;100183.75;;;18.59;60.16
28306;BME280;7516;43.570;1.448;2023-04-10T12:09:31;100187.59;;;18.70;58.56
28306;BME280;7516;43.570;1.448;2023-04-10T12:11:59;100178.25;;;18.92;58.35
28306;BME280;7516;43.570;1.448;2023-04-10T12:14:31;100178.22;;;18.99;58.11
28306;BME280;7516;43.570;1.448;2023-04-10T12:16:59;100190.50;;;19.25;59.12
28306;BME280;7516;43.570;1.448;2023-04-10T12:19:27;100185.19;;;19.25;56.91
28306;BME280;7516;43.570;1.448;2023-04-10T12:21:57;100188.03;;;19.23;57.93
28306;BME280;7516;43.570;1.448;2023-04-10T12:24:41;100187.16;;;19.04;57.39
28306;BME280;7516;43.570;1.448;2023-04-10T12:27:15;100204.25;;;19.15;57.15
28306;BME280;7516;43.570;1.448;2023-04-10T12:29:44;100207.53;;;19.17;57.14
28306;BME280;7516;43.570;1.448;2023-04-10T12:32:11;100205.16;;;19.27;58.75
28306;BME280;7516;43.570;1.448;2023-04-10T12:34:39;100209.13;;;19.18;57.83
28306;BME280;7516;43.570;1.448;2023-04-10T12:37:08;100206.19;;;19.26;56.53
28306;BME280;7516;43.570;1.448;2023-04-10T12:39:36;100202.03;;;19.37;57.66
28306;BME280;7516;43.570;1.448;2023-04-10T12:42:14;100188.75;;;19.37;56.41
28306;BME280;7516;43.570;1.448;2023-04-10T12:44:52;100183.22;;;19.38;56.44
28306;BME280;7516;43.570;1.448;2023-04-10T12:47:20;100176.72;;;19.34;57.84
28306;BME280;7516;43.570;1.448;2023-04-10T12:50:05;100174.34;;;19.44;57.16
28306;BME280;7516;43.570;1.448;2023-04-10T12:52:34;100178.66;;;19.45;56.54
28306;BME280;7516;43.570;1.448;2023-04-10T12:55:09;100176.63;;;19.47;56.83
28306;BME280;7516;43.570;1.448;2023-04-10T12:57:37;100180.41;;;19.33;56.87
28306;BME280;7516;43.570;1.448;2023-04-10T13:00:05;100182.59;;;19.36;55.53
28306;BME280;7516;43.570;1.448;2023-04-10T13:02:34;100194.19;;;19.48;55.93
28306;BME280;7516;43.570;1.448;2023-04-10T13:05:02;100185.56;;;19.53;56.18
28306;BME280;7516;43.570;1.448;2023-04-10T13:07:30;100187.16;;;19.61;56.06
28306;BME280;7516;43.570;1.448;2023-04-10T13:09:59;100195.16;;;19.54;56.38
28306;BME280;7516;43.570;1.448;2023-04-10T13:12:27;100191.25;;;19.57;55.76
28306;BME280;7516;43.570;1.448;2023-04-10T13:14:55;100185.06;;;19.63;55.91
28306;BME280;7516;43.570;1.448;2023-04-10T13:17:24;100187.00;;;19.74;56.67
28306;BME280;7516;43.570;1.448;2023-04-10T13:19:52;100183.91;;;19.77;54.90